Time;durP1;ratioP1;P1;durP2;ratioP2;P2;SDS_P1;SDS_P2;PMS_P1;PMS_P2;Temp;Humidity;BMP_temperature;BMP_pressure;BME280_temperature;BME280_humidity;BME280_pressure;Samples;Min_cycle;Max_cycle;Signal;HPM_P1;HPM_P2
2023/03/22 00:01:20;;;;;;;7.57;5.73;;;10.70;1.00;;;;;;5043693;28;20470;-73
2023/03/22 00:03:47;;;;;;;12.03;5.93;;;10.70;1.00;;;;;;5042667;28;20435;-73
2023/03/22 00:06:13;;;;;;;10.70;6.50;;;10.70;1.00;;;;;;5046841;28;20825;-72
2023/03/22 00:08:39;;;;;;;9.57;6.40;;;10.80;1.00;;;;;;5050715;28;20438;-73
2023/03/22 00:11:05;;;;;;;9.37;6.53;;;10.80;1.00;;;;;;5050768;28;20602;-72
2023/03/22 00:13:32;;;;;;;10.63;6.20;;;10.80;1.00;;;;;;5051366;28;20264;-75
2023/03/22 00:15:58;;;;;;;7.47;6.00;;;10.90;1.00;;;;;;5049405;28;20485;-73
2023/03/22 00:18:24;;;;;;;8.40;6.00;;;10.90;1.00;;;;;;5045440;28;20456;-72
2023/03/22 00:20:55;;;;;;;9.87;6.03;;;11.00;1.00;;;;;;5048595;28;20459;-73
2023/03/22 00:23:21;;;;;;;8.07;6.33;;;11.00;1.00;;;;;;5051194;28;20493;-73
2023/03/22 00:25:47;;;;;;;8.27;5.73;;;11.10;1.00;;;;;;5044664;28;20474;-73
2023/03/22 00:28:14;;;;;;;9.00;5.57;;;11.10;1.00;;;;;;5046693;28;20624;-73
2023/03/22 00:30:41;;;;;;;8.70;5.40;;;11.10;1.00;;;;;;5045601;28;20209;-73
2023/03/22 00:33:06;;;;;;;7.50;5.40;;;11.10;1.00;;;;;;5046612;28;20734;-73
2023/03/22 00:35:32;;;;;;;8.57;5.57;;;11.10;1.00;;;;;;5048232;28;20439;-73
2023/03/22 00:38:05;;;;;;;9.13;6.10;;;11.20;1.00;;;;;;5050253;28;20688;-72
2023/03/22 00:40:32;;;;;;;6.90;5.50;;;11.20;1.00;;;;;;5047151;28;20679;-73
2023/03/22 00:42:57;;;;;;;9.53;5.60;;;11.30;1.00;;;;;;5051095;28;20416;-72
2023/03/22 00:45:23;;;;;;;7.10;5.83;;;11.40;1.00;;;;;;5048436;28;20563;-73
2023/03/22 00:47:49;;;;;;;9.20;5.60;;;11.40;1.00;;;;;;5049459;28;20223;-74
2023/03/22 00:53:37;;;;;;;8.63;5.87;;;11.40;1.00;;;;;;5047672;28;20238;-72
2023/03/22 00:56:04;;;;;;;9.57;6.33;;;11.40;1.00;;;;;;5049179;28;20518;-72
2023/03/22 00:58:29;;;;;;;10.93;6.30;;;11.40;1.00;;;;;;5045506;28;20438;-73
2023/03/22 01:00:55;;;;;;;8.10;5.87;;;11.40;1.00;;;;;;5046575;28;20735;-74
2023/03/22 01:03:21;;;;;;;7.20;5.40;;;11.30;1.00;;;;;;5045196;28;20188;-71
2023/03/22 01:05:48;;;;;;;7.57;5.90;;;11.30;1.00;;;;;;5042685;28;20180;-72
2023/03/22 01:08:15;;;;;;;8.57;5.93;;;11.20;1.00;;;;;;5048822;28;20185;-75
2023/03/22 01:10:42;;;;;;;6.73;5.23;;;11.10;1.00;;;;;;5048807;28;20467;-73
2023/03/22 01:13:09;;;;;;;7.37;5.80;;;11.10;1.00;;;;;;5048762;28;20447;-73
2023/03/22 01:15:35;;;;;;;7.57;6.00;;;11.10;1.00;;;;;;5049745;28;20481;-73
2023/03/22 01:18:01;;;;;;;7.90;5.93;;;11.10;1.00;;;;;;5048969;28;20443;-73
2023/03/22 01:20:27;;;;;;;8.70;6.07;;;11.10;1.00;;;;;;5047891;28;20662;-72
2023/03/22 01:22:53;;;;;;;7.97;5.80;;;11.10;1.00;;;;;;5049574;28;20204;-71
2023/03/22 01:25:19;;;;;;;8.53;5.23;;;11.20;1.00;;;;;;5048978;28;20937;-73
2023/03/22 01:27:44;;;;;;;8.70;6.00;;;11.20;1.00;;;;;;5041019;28;20311;-74
2023/03/22 01:30:11;;;;;;;9.70;6.37;;;11.20;1.00;;;;;;5036567;28;20537;-72
2023/03/22 01:32:37;;;;;;;10.47;5.87;;;11.20;1.00;;;;;;5047293;28;20178;-74
2023/03/22 01:35:04;;;;;;;6.87;5.50;;;11.20;1.00;;;;;;5048765;28;20445;-71
2023/03/22 01:37:31;;;;;;;8.03;6.30;;;11.20;1.00;;;;;;5043534;28;20247;-72
2023/03/22 01:39:57;;;;;;;11.23;6.83;;;11.20;1.00;;;;;;5032928;28;20454;-72
2023/03/22 01:42:24;;;;;;;10.03;6.97;;;11.10;1.00;;;;;;5035879;28;20444;-73
2023/03/22 01:45:14;;;;;;;8.23;6.20;;;11.10;1.00;;;;;;5047461;28;20189;-74
2023/03/22 01:47:44;;;;;;;7.27;5.90;;;11.10;1.00;;;;;;5049973;28;20643;-72
2023/03/22 01:50:10;;;;;;;7.53;5.83;;;11.10;1.00;;;;;;5041878;28;20467;-73
2023/03/22 01:52:37;;;;;;;9.47;6.77;;;11.10;1.00;;;;;;5044516;28;20435;-72
2023/03/22 01:55:05;;;;;;;10.10;6.37;;;11.10;1.00;;;;;;5051043;28;20420;-72
2023/03/22 01:57:32;;;;;;;8.10;6.30;;;11.10;1.00;;;;;;5047452;28;20435;-73
2023/03/22 01:59:58;;;;;;;11.07;6.60;;;11.20;1.00;;;;;;5050036;28;20456;-72
2023/03/22 02:02:24;;;;;;;9.50;6.47;;;11.20;1.00;;;;;;5043120;28;20574;-72
2023/03/22 02:04:50;;;;;;;10.70;6.40;;;11.20;1.00;;;;;;5050244;28;20918;-72
2023/03/22 02:07:26;;;;;;;8.23;6.10;;;11.30;1.00;;;;;;5049273;28;20223;-71
2023/03/22 02:09:52;;;;;;;7.40;6.27;;;11.30;1.00;;;;;;5039035;28;20212;-72
2023/03/22 02:12:50;;;;;;;8.17;6.20;;;11.30;1.00;;;;;;5049837;28;20430;-71
2023/03/22 02:15:19;;;;;;;8.40;6.40;;;11.30;1.00;;;;;;5047451;28;20455;-71
2023/03/22 02:18:15;;;;;;;14.63;6.57;;;11.30;1.00;;;;;;5047112;28;20436;-72
2023/03/22 02:21:02;;;;;;;7.97;6.03;;;11.30;1.00;;;;;;5040698;28;20482;-71
2023/03/22 02:23:59;;;;;;;6.77;5.70;;;11.30;1.00;;;;;;5045392;28;20450;-71
2023/03/22 02:26:45;;;;;;;8.50;6.00;;;11.30;1.00;;;;;;5047545;28;20435;-73
2023/03/22 02:29:21;;;;;;;9.60;6.00;;;11.30;1.00;;;;;;5049634;28;20470;-72
2023/03/22 02:32:05;;;;;;;9.80;6.50;;;11.40;1.00;;;;;;5044614;28;20439;-72
2023/03/22 02:34:33;;;;;;;8.67;6.40;;;11.40;1.00;;;;;;5048390;28;20949;-73
2023/03/22 02:37:26;;;;;;;10.93;6.20;;;11.40;1.00;;;;;;5048982;28;20889;-72
2023/03/22 02:40:08;;;;;;;9.90;6.53;;;11.40;1.00;;;;;;5042084;28;20458;-71
2023/03/22 02:42:56;;;;;;;9.97;6.23;;;11.40;1.00;;;;;;5040128;28;20431;-75
2023/03/22 02:45:31;;;;;;;9.13;5.90;;;11.40;1.00;;;;;;5046577;28;20446;-71
2023/03/22 02:48:08;;;;;;;11.30;6.83;;;11.40;1.00;;;;;;5036857;28;20447;-72
2023/03/22 02:50:45;;;;;;;11.10;6.20;;;11.40;1.00;;;;;;5041046;28;20471;-72
2023/03/22 02:53:23;;;;;;;9.60;5.53;;;11.40;1.00;;;;;;5048039;28;20863;-73
2023/03/22 02:55:58;;;;;;;12.00;6.10;;;11.40;1.00;;;;;;5046554;28;20439;-73
2023/03/22 02:58:47;;;;;;;5.93;5.10;;;11.50;1.00;;;;;;5047341;28;20964;-72
2023/03/22 03:01:20;;;;;;;12.63;6.50;;;11.50;1.00;;;;;;5044574;28;20953;-71
2023/03/22 03:03:49;;;;;;;7.93;5.80;;;11.50;1.00;;;;;;5045035;28;20431;-70
2023/03/22 03:06:20;;;;;;;9.10;6.07;;;11.50;1.00;;;;;;5043613;28;20486;-72
2023/03/22 03:08:49;;;;;;;8.37;5.60;;;11.50;1.00;;;;;;5049139;28;20449;-70
2023/03/22 03:11:15;;;;;;;8.27;6.53;;;11.50;1.00;;;;;;5049190;28;20459;-73
2023/03/22 03:13:41;;;;;;;10.03;6.13;;;11.50;1.00;;;;;;5047796;28;20438;-72
2023/03/22 03:16:12;;;;;;;9.40;6.00;;;11.50;1.00;;;;;;5049906;28;20189;-72
2023/03/22 03:18:52;;;;;;;12.33;5.90;;;11.50;1.00;;;;;;5046440;28;20189;-73
2023/03/22 03:21:28;;;;;;;7.03;5.53;;;11.40;1.00;;;;;;5042922;28;20470;-75
2023/03/22 03:24:17;;;;;;;9.30;5.37;;;11.40;1.00;;;;;;5040713;28;20775;-72
2023/03/22 03:27:06;;;;;;;8.93;5.17;;;11.30;1.00;;;;;;5048871;28;20829;-72
2023/03/22 03:29:39;;;;;;;8.80;5.90;;;11.30;1.00;;;;;;5047080;28;20474;-72
2023/03/22 03:32:24;;;;;;;7.10;5.23;;;11.30;1.00;;;;;;5048559;28;20482;-72
2023/03/22 03:35:21;;;;;;;7.90;5.63;;;11.30;1.00;;;;;;5045035;28;20492;-71
2023/03/22 03:37:56;;;;;;;6.93;5.57;;;11.30;1.00;;;;;;5046513;28;20448;-72
2023/03/22 03:40:31;;;;;;;6.60;5.60;;;11.20;1.00;;;;;;5048169;28;20461;-73
2023/03/22 03:43:01;;;;;;;7.50;5.03;;;11.20;1.00;;;;;;5045630;28;20529;-74
2023/03/22 03:45:27;;;;;;;6.43;5.20;;;11.10;1.00;;;;;;5049150;28;20493;-72
2023/03/22 03:47:59;;;;;;;6.77;5.40;;;11.10;1.00;;;;;;5045307;28;20427;-72
2023/03/22 03:50:26;;;;;;;8.07;5.80;;;11.90;1.00;;;;;;5051256;28;20205;-71
2023/03/22 03:52:54;;;;;;;8.70;6.67;;;11.10;1.00;;;;;;5052602;28;20427;-75
2023/03/22 03:55:21;;;;;;;9.67;7.00;;;11.10;1.00;;;;;;5048729;28;20431;-71
2023/03/22 03:57:47;;;;;;;10.27;7.10;;;10.90;1.00;;;;;;5051920;28;20453;-73
2023/03/22 04:00:13;;;;;;;7.20;5.90;;;11.30;1.00;;;;;;5050986;28;20466;-73
2023/03/22 04:02:43;;;;;;;7.80;5.80;;;11.30;1.00;;;;;;5050928;28;20766;-71
2023/03/22 04:05:10;;;;;;;6.37;5.23;;;11.30;1.00;;;;;;5051879;28;20443;-73
2023/03/22 04:07:36;;;;;;;11.17;6.20;;;11.20;1.00;;;;;;5049340;28;20455;-73
2023/03/22 04:10:03;;;;;;;13.40;7.80;;;11.10;1.00;;;;;;5051743;28;20497;-73
2023/03/22 04:12:28;;;;;;;13.03;7.67;;;11.00;1.00;;;;;;5050974;28;20177;-76
2023/03/22 04:14:54;;;;;;;10.70;7.03;;;10.90;1.00;;;;;;5052068;28;20434;-74
2023/03/22 04:17:20;;;;;;;16.43;9.50;;;10.80;1.00;;;;;;5044432;28;20181;-73
2023/03/22 04:19:46;;;;;;;12.67;7.57;;;10.80;1.00;;;;;;5048093;28;20475;-71
2023/03/22 04:22:13;;;;;;;10.20;5.63;;;10.80;1.00;;;;;;5049622;28;20945;-73
2023/03/22 04:24:40;;;;;;;9.20;5.00;;;10.70;1.00;;;;;;5051440;28;20192;-78
2023/03/22 04:27:07;;;;;;;6.70;5.07;;;10.70;1.00;;;;;;5050617;28;20439;-74
2023/03/22 04:29:35;;;;;;;10.93;5.17;;;10.80;1.00;;;;;;5050790;28;20545;-74
2023/03/22 04:32:03;;;;;;;6.80;5.00;;;10.90;1.00;;;;;;5048961;28;20439;-72
2023/03/22 04:34:30;;;;;;;7.10;5.07;;;10.90;1.00;;;;;;5048088;28;20423;-72
2023/03/22 04:36:56;;;;;;;8.40;6.17;;;10.90;1.00;;;;;;5046783;28;20489;-74
2023/03/22 04:39:21;;;;;;;7.73;5.93;;;10.90;1.00;;;;;;5047799;28;20717;-71
2023/03/22 04:41:47;;;;;;;6.17;4.37;;;10.80;1.00;;;;;;5052451;28;20181;-72
2023/03/22 04:44:12;;;;;;;7.60;5.13;;;10.70;1.00;;;;;;5047023;28;20189;-73
2023/03/22 04:46:38;;;;;;;7.80;4.70;;;10.70;1.00;;;;;;5045810;28;20199;-73
2023/03/22 04:49:04;;;;;;;6.00;4.60;;;10.70;1.00;;;;;;5044376;28;20247;-72
2023/03/22 04:51:30;;;;;;;6.87;4.63;;;10.60;1.00;;;;;;5051951;28;20213;-72
2023/03/22 04:53:57;;;;;;;7.93;4.97;;;10.50;1.00;;;;;;5044587;28;20802;-72
2023/03/22 04:56:24;;;;;;;7.53;4.70;;;10.60;1.00;;;;;;5051646;28;20428;-73
2023/03/22 04:58:49;;;;;;;6.73;4.50;;;10.60;1.00;;;;;;5046909;28;20514;-72
2023/03/22 05:01:16;;;;;;;6.30;4.63;;;10.50;1.00;;;;;;5052185;28;20443;-71
2023/03/22 05:03:44;;;;;;;7.33;4.20;;;10.50;1.00;;;;;;5050418;28;20231;-71
2023/03/22 05:06:10;;;;;;;6.90;3.80;;;10.50;1.00;;;;;;5051377;28;20435;-72
2023/03/22 05:08:36;;;;;;;5.23;4.00;;;10.50;1.00;;;;;;5050949;28;20448;-72
2023/03/22 05:11:08;;;;;;;6.93;4.80;;;10.50;1.00;;;;;;5049847;28;20466;-71
2023/03/22 05:13:35;;;;;;;4.73;4.00;;;10.40;1.00;;;;;;5047517;28;21094;-71
2023/03/22 05:16:00;;;;;;;8.10;4.87;;;10.30;1.00;;;;;;5042552;28;20458;-73
2023/03/22 05:18:26;;;;;;;7.03;4.70;;;10.20;1.00;;;;;;5048202;28;20962;-72
2023/03/22 05:20:55;;;;;;;6.90;4.33;;;10.20;1.00;;;;;;5050153;28;20350;-74
2023/03/22 05:23:21;;;;;;;7.03;4.40;;;10.10;1.00;;;;;;5047591;28;20231;-72
2023/03/22 05:25:47;;;;;;;4.50;4.07;;;10.00;1.00;;;;;;5050421;28;20431;-73
2023/03/22 05:28:13;;;;;;;6.70;4.30;;;10.00;1.00;;;;;;5045429;28;21064;-72
2023/03/22 05:30:40;;;;;;;6.33;4.17;;;9.90;1.00;;;;;;5049014;28;20464;-72
2023/03/22 05:33:07;;;;;;;7.00;5.07;;;10.00;1.00;;;;;;5046193;28;20435;-74
2023/03/22 05:35:34;;;;;;;6.33;4.60;;;9.90;1.00;;;;;;5045050;28;20443;-73
2023/03/22 05:38:00;;;;;;;6.63;4.37;;;9.90;1.00;;;;;;5046287;28;20427;-72
2023/03/22 05:40:26;;;;;;;6.23;4.43;;;9.90;1.00;;;;;;5049946;28;20505;-72
2023/03/22 05:42:53;;;;;;;6.93;4.30;;;9.90;1.00;;;;;;5049737;28;20184;-72
2023/03/22 05:45:20;;;;;;;6.00;4.13;;;10.00;1.00;;;;;;5049244;28;20432;-72
2023/03/22 05:47:46;;;;;;;9.30;4.27;;;9.90;1.00;;;;;;5044219;28;20516;-72
2023/03/22 05:50:15;;;;;;;10.50;6.00;;;10.00;1.00;;;;;;5046094;28;20471;-74
2023/03/22 05:52:43;;;;;;;6.20;4.53;;;10.00;1.00;;;;;;5043718;28;20487;-71
2023/03/22 05:55:11;;;;;;;8.43;4.60;;;10.00;1.00;;;;;;5048853;28;21002;-73
2023/03/22 05:57:37;;;;;;;7.50;4.70;;;10.00;1.00;;;;;;5042746;28;20457;-76
2023/03/22 06:00:06;;;;;;;7.17;5.10;;;10.00;1.00;;;;;;5047027;28;20462;-73
2023/03/22 06:02:33;;;;;;;7.60;4.80;;;10.00;1.00;;;;;;5048172;28;20427;-72
2023/03/22 06:04:58;;;;;;;8.77;5.00;;;10.00;1.00;;;;;;5046285;28;20501;-73
2023/03/22 06:07:24;;;;;;;8.47;5.40;;;10.00;1.00;;;;;;5041602;28;20239;-75
2023/03/22 06:09:49;;;;;;;6.83;4.53;;;10.00;1.00;;;;;;5048302;28;20287;-73
2023/03/22 06:12:16;;;;;;;6.70;4.70;;;10.10;1.00;;;;;;5046623;28;20184;-73
2023/03/22 06:14:41;;;;;;;6.77;4.60;;;10.10;1.00;;;;;;5049008;28;20231;-72
2023/03/22 06:17:07;;;;;;;10.40;4.47;;;10.20;1.00;;;;;;5045439;28;20444;-74
2023/03/22 06:19:33;;;;;;;6.63;4.60;;;10.20;1.00;;;;;;5043971;28;20197;-71
2023/03/22 06:21:59;;;;;;;8.53;4.57;;;10.30;1.00;;;;;;5049172;28;20427;-75
2023/03/22 06:24:24;;;;;;;5.73;4.10;;;10.40;1.00;;;;;;5041903;28;20215;-72
2023/03/22 06:26:50;;;;;;;8.27;4.57;;;10.70;1.00;;;;;;5041012;28;20178;-72
2023/03/22 06:29:15;;;;;;;7.73;3.97;;;11.30;1.00;;;;;;5045497;28;20207;-72
2023/03/22 06:31:41;;;;;;;5.35;3.90;;;12.00;1.00;;;;;;5048598;28;20518;-73
2023/03/22 06:34:06;;;;;;;5.10;4.30;;;12.40;1.00;;;;;;5041191;28;20664;-74
2023/03/22 06:36:32;;;;;;;6.00;4.00;;;12.50;1.00;;;;;;5032757;28;20173;-73
2023/03/22 06:38:59;;;;;;;6.30;4.57;;;12.70;1.00;;;;;;5042326;28;20186;-72
2023/03/22 06:41:25;;;;;;;6.83;4.23;;;13.20;1.00;;;;;;5046977;28;20272;-72
2023/03/22 06:43:51;;;;;;;7.33;4.53;;;13.90;1.00;;;;;;5040410;28;20455;-73
2023/03/22 06:46:16;;;;;;;6.00;4.50;;;13.20;1.00;;;;;;5038951;28;20256;-70
2023/03/22 06:48:42;;;;;;;5.30;4.50;;;12.90;1.00;;;;;;5040862;28;20181;-72
2023/03/22 06:51:07;;;;;;;9.33;4.60;;;12.50;1.00;;;;;;5039770;28;20215;-73
2023/03/22 06:53:34;;;;;;;7.90;4.70;;;12.20;1.00;;;;;;5044499;28;20336;-74
2023/03/22 06:55:59;;;;;;;5.60;4.30;;;12.00;1.00;;;;;;5041746;28;20548;-73
2023/03/22 06:58:25;;;;;;;5.40;3.90;;;12.00;1.00;;;;;;5045420;28;20432;-74
2023/03/22 07:00:51;;;;;;;6.00;4.17;;;12.20;1.00;;;;;;5046947;28;20232;-74
2023/03/22 07:03:17;;;;;;;5.67;4.07;;;12.30;1.00;;;;;;5044112;28;20464;-73
2023/03/22 07:05:43;;;;;;;5.27;3.93;;;12.20;1.00;;;;;;5044875;28;20189;-74
2023/03/22 07:08:08;;;;;;;6.10;4.50;;;12.20;1.00;;;;;;5044346;28;20447;-72
2023/03/22 07:10:34;;;;;;;6.47;4.47;;;12.30;1.00;;;;;;5048903;28;20213;-73
2023/03/22 07:13:01;;;;;;;5.10;4.00;;;12.10;1.00;;;;;;5048106;28;20310;-73
2023/03/22 07:15:27;;;;;;;6.87;4.40;;;12.20;1.00;;;;;;5042559;28;20173;-73
2023/03/22 07:17:53;;;;;;;13.27;5.20;;;12.20;1.00;;;;;;5041114;28;20438;-73
2023/03/22 07:20:19;;;;;;;8.93;3.80;;;12.30;1.00;;;;;;5045474;28;20266;-74
2023/03/22 07:22:45;;;;;;;5.77;4.40;;;12.40;1.00;;;;;;5046492;28;20596;-74
2023/03/22 07:25:11;;;;;;;5.50;4.10;;;12.50;1.00;;;;;;5033788;28;20343;-73
2023/03/22 07:27:36;;;;;;;6.43;4.50;;;12.70;1.00;;;;;;5040374;28;20864;-74
2023/03/22 07:30:03;;;;;;;5.80;4.00;;;13.10;1.00;;;;;;5046134;28;20235;-73
2023/03/22 07:32:29;;;;;;;7.03;4.63;;;13.40;1.00;;;;;;5038171;28;20236;-74
2023/03/22 07:34:54;;;;;;;7.53;4.67;;;13.70;1.00;;;;;;5041833;28;20425;-74
2023/03/22 07:37:20;;;;;;;7.20;4.60;;;13.90;1.00;;;;;;5050973;28;20256;-74
2023/03/22 07:39:45;;;;;;;7.87;4.60;;;14.00;1.00;;;;;;5043420;28;20279;-74
2023/03/22 07:42:11;;;;;;;5.73;4.03;;;14.10;1.00;;;;;;5046837;28;20189;-74
2023/03/22 07:44:36;;;;;;;11.00;4.70;;;14.30;1.00;;;;;;5039764;28;20300;-74
2023/03/22 07:47:02;;;;;;;8.47;4.73;;;14.70;1.00;;;;;;5042028;28;20190;-74
2023/03/22 07:49:29;;;;;;;8.90;4.77;;;15.10;1.00;;;;;;5047923;28;20220;-74
2023/03/22 07:51:55;;;;;;;7.87;5.57;;;15.80;1.00;;;;;;5048337;28;20435;-73
2023/03/22 07:54:20;;;;;;;8.87;5.70;;;16.00;1.00;;;;;;5048154;28;20471;-74
2023/03/22 07:56:46;;;;;;;7.17;5.00;;;16.30;1.00;;;;;;5045933;28;20729;-74
2023/03/22 07:59:15;;;;;;;11.00;5.40;;;16.70;1.00;;;;;;5042317;28;20547;-74
2023/03/22 08:01:42;;;;;;;8.27;5.43;;;17.20;1.00;;;;;;5044728;28;20443;-75
2023/03/22 08:04:08;;;;;;;15.03;5.50;;;17.50;1.00;;;;;;5044556;28;20948;-74
2023/03/22 08:06:35;;;;;;;6.50;5.00;;;17.60;1.00;;;;;;5042584;28;20801;-74
2023/03/22 08:09:02;;;;;;;8.07;4.90;;;17.90;1.00;;;;;;5050920;28;20440;-74
2023/03/22 08:11:27;;;;;;;7.70;5.07;;;18.20;1.00;;;;;;5049872;28;20455;-75
2023/03/22 08:13:54;;;;;;;7.07;5.60;;;19.00;1.00;;;;;;5048487;28;20446;-74
2023/03/22 08:16:20;;;;;;;7.13;4.53;;;19.70;1.00;;;;;;5042009;28;20185;-75
2023/03/22 08:18:45;;;;;;;14.63;4.80;;;20.20;1.00;;;;;;5036411;28;20941;-72
2023/03/22 08:21:11;;;;;;;6.57;4.53;;;20.90;1.00;;;;;;5051200;28;20325;-75
2023/03/22 08:23:36;;;;;;;7.67;4.30;;;21.00;1.00;;;;;;5050447;28;20543;-75
2023/03/22 08:26:02;;;;;;;5.90;4.80;;;21.20;1.00;;;;;;5046696;28;20172;-75
2023/03/22 08:28:27;;;;;;;6.70;4.60;;;20.80;1.00;;;;;;5040774;28;20711;-71
2023/03/22 08:30:53;;;;;;;7.10;4.40;;;21.30;1.00;;;;;;5048078;28;20223;-75
2023/03/22 08:33:20;;;;;;;7.97;4.30;;;21.40;1.00;;;;;;5046867;28;20769;-74
2023/03/22 08:35:46;;;;;;;5.53;3.80;;;21.80;1.00;;;;;;5046829;28;20181;-71
2023/03/22 08:38:11;;;;;;;4.37;3.10;;;22.30;1.00;;;;;;5052062;28;20431;-74
2023/03/22 08:40:37;;;;;;;6.20;3.63;;;22.00;1.00;;;;;;5046998;28;20271;-74
2023/03/22 08:43:03;;;;;;;4.40;3.17;;;21.70;1.00;;;;;;5049462;28;20188;-75
2023/03/22 08:45:28;;;;;;;4.73;2.70;;;21.80;1.00;;;;;;5042484;28;20337;-74
2023/03/22 08:47:54;;;;;;;3.63;2.60;;;22.20;1.00;;;;;;5049747;28;20268;-74
2023/03/22 08:50:19;;;;;;;4.07;2.80;;;23.20;1.00;;;;;;5044034;28;20234;-75
2023/03/22 08:52:45;;;;;;;5.43;2.70;;;23.70;1.00;;;;;;5041163;28;20196;-75
2023/03/22 08:55:10;;;;;;;5.03;2.43;;;24.30;1.00;;;;;;5049771;28;20184;-75
2023/03/22 08:57:36;;;;;;;3.77;2.30;;;24.90;1.00;;;;;;5045797;28;20179;-74
2023/03/22 09:00:09;;;;;;;3.10;2.00;;;24.50;1.00;;;;;;5051276;28;20209;-73
2023/03/22 09:02:35;;;;;;;5.80;2.50;;;23.30;1.00;;;;;;5044772;28;20184;-75
2023/03/22 09:05:00;;;;;;;3.80;2.07;;;22.80;1.00;;;;;;5049234;28;20431;-74
2023/03/22 09:07:26;;;;;;;3.43;2.23;;;22.60;1.00;;;;;;5046578;28;20188;-75
2023/03/22 09:09:52;;;;;;;4.70;2.30;;;21.90;1.00;;;;;;5047250;28;20522;-74
2023/03/22 09:12:17;;;;;;;3.10;2.20;;;21.80;1.00;;;;;;5045430;28;20752;-73
2023/03/22 09:14:45;;;;;;;3.70;2.20;;;22.30;1.00;;;;;;5047040;28;20258;-74
2023/03/22 09:17:11;;;;;;;4.73;2.60;;;21.90;1.00;;;;;;5051312;28;20172;-75
2023/03/22 09:19:36;;;;;;;3.80;2.27;;;21.20;1.00;;;;;;5046053;28;20462;-74
2023/03/22 09:22:02;;;;;;;3.67;2.40;;;21.10;1.00;;;;;;5046738;28;20196;-74
2023/03/22 09:24:27;;;;;;;3.50;2.10;;;21.00;1.00;;;;;;5046657;28;20180;-73
2023/03/22 09:26:53;;;;;;;4.63;2.33;;;20.70;1.00;;;;;;5048037;28;20185;-75
2023/03/22 09:29:19;;;;;;;3.40;2.00;;;21.80;1.00;;;;;;5043232;28;20702;-75
2023/03/22 09:31:47;;;;;;;2.97;2.13;;;22.30;1.00;;;;;;5036182;28;20182;-74
2023/03/22 09:34:13;;;;;;;5.00;2.10;;;22.70;1.00;;;;;;5036880;28;20585;-75
2023/03/22 09:36:39;;;;;;;3.30;2.10;;;23.10;1.00;;;;;;5041669;28;20868;-76
2023/03/22 09:39:06;;;;;;;2.97;2.00;;;23.30;1.00;;;;;;5038644;28;20436;-74
2023/03/22 09:41:36;;;;;;;3.77;1.97;;;24.00;1.00;;;;;;5043454;28;20562;-75
2023/03/22 09:44:06;;;;;;;4.37;2.17;;;24.10;1.00;;;;;;5042656;28;20438;-75
2023/03/22 09:46:36;;;;;;;2.60;1.80;;;25.00;1.00;;;;;;5044231;28;20450;-75
2023/03/22 09:49:06;;;;;;;3.10;1.80;;;25.70;1.00;;;;;;5044966;28;20943;-75
2023/03/22 09:51:44;;;;;;;5.70;2.47;;;26.00;1.00;;;;;;5050720;28;20446;-73
2023/03/22 09:54:18;;;;;;;4.67;1.90;;;25.60;1.00;;;;;;5045039;28;20203;-75
2023/03/22 09:56:54;;;;;;;3.47;1.80;;;24.50;1.00;;;;;;5043784;28;20836;-74
2023/03/22 09:59:45;;;;;;;3.00;1.70;;;23.60;1.00;;;;;;5047150;28;20464;-74
2023/03/22 10:02:38;;;;;;;3.13;1.83;;;23.70;1.00;;;;;;5043507;28;20804;-74
2023/03/22 10:05:15;;;;;;;3.30;1.63;;;23.30;1.00;;;;;;5047383;28;20470;-73
2023/03/22 10:07:52;;;;;;;4.43;1.67;;;22.80;1.00;;;;;;5046532;28;20451;-74
2023/03/22 10:10:21;;;;;;;4.30;2.00;;;22.00;1.00;;;;;;5029376;28;20991;-75
2023/03/22 10:12:59;;;;;;;4.10;1.57;;;22.00;1.00;;;;;;5044867;28;20427;-75
2023/03/22 10:15:44;;;;;;;3.10;1.83;;;21.80;1.00;;;;;;5056229;28;20435;-75
2023/03/22 10:18:19;;;;;;;2.80;2.00;;;21.50;1.00;;;;;;5043847;28;20463;-75
2023/03/22 10:20:51;;;;;;;3.10;2.10;;;21.00;1.00;;;;;;5046995;28;20466;-75
2023/03/22 10:23:28;;;;;;;3.83;1.80;;;21.00;1.00;;;;;;5042248;28;20473;-74
2023/03/22 10:25:56;;;;;;;3.43;2.13;;;21.10;1.00;;;;;;5037950;28;20531;-74
2023/03/22 10:28:36;;;;;;;3.00;1.70;;;20.80;1.00;;;;;;5045160;28;20435;-75
2023/03/22 10:31:01;;;;;;;3.00;1.80;;;20.10;1.00;;;;;;5042734;28;20553;-74
2023/03/22 10:33:38;;;;;;;3.03;1.97;;;20.00;1.00;;;;;;5044182;28;20884;-74
2023/03/22 10:36:08;;;;;;;3.40;1.90;;;20.70;1.00;;;;;;5049666;28;20180;-74
2023/03/22 10:38:40;;;;;;;7.00;2.20;;;20.60;1.00;;;;;;5040651;28;20423;-75
2023/03/22 10:41:07;;;;;;;3.83;2.03;;;20.70;1.00;;;;;;5047162;28;20864;-75
2023/03/22 10:43:36;;;;;;;7.07;1.90;;;20.50;1.00;;;;;;5040624;28;20502;-75
2023/03/22 10:46:06;;;;;;;4.10;1.97;;;21.50;1.00;;;;;;5045621;28;20501;-75
2023/03/22 10:48:42;;;;;;;3.07;1.87;;;22.80;1.00;;;;;;5036944;28;20580;-72
2023/03/22 10:51:18;;;;;;;3.10;1.80;;;23.50;1.00;;;;;;5044558;28;20479;-72
2023/03/22 10:53:46;;;;;;;3.30;2.00;;;23.70;1.00;;;;;;5047081;28;20449;-72
2023/03/22 10:56:18;;;;;;;3.47;1.90;;;24.30;1.00;;;;;;5039646;28;20428;-76
2023/03/22 10:58:45;;;;;;;7.63;2.30;;;24.50;1.00;;;;;;5035717;28;20729;-75
2023/03/22 11:01:14;;;;;;;3.73;1.90;;;24.90;1.00;;;;;;5037894;28;20508;-74
2023/03/22 11:03:41;;;;;;;2.60;1.80;;;26.00;1.00;;;;;;5045077;28;20450;-74
2023/03/22 11:06:11;;;;;;;3.10;2.13;;;27.40;1.00;;;;;;5042647;28;21056;-75
2023/03/22 11:08:48;;;;;;;3.77;1.87;;;27.40;1.00;;;;;;5049591;28;20423;-74
2023/03/22 11:11:22;;;;;;;6.73;2.00;;;27.10;1.00;;;;;;5044168;28;20468;-75
2023/03/22 11:13:50;;;;;;;3.43;1.80;;;27.80;1.00;;;;;;5036976;28;20200;-74
2023/03/22 11:16:16;;;;;;;4.17;2.40;;;27.50;1.00;;;;;;5045285;28;20191;-75
2023/03/22 11:18:43;;;;;;;4.27;2.23;;;27.60;1.00;;;;;;5040966;28;20185;-75
2023/03/22 11:21:14;;;;;;;10.70;2.03;;;26.70;1.00;;;;;;5041598;28;20204;-75
2023/03/22 11:23:52;;;;;;;4.20;2.10;;;27.90;1.00;;;;;;5041907;28;20228;-75
2023/03/22 11:26:26;;;;;;;3.23;2.10;;;27.00;1.00;;;;;;5038292;28;20173;-75
2023/03/22 11:29:01;;;;;;;3.03;2.20;;;25.60;1.00;;;;;;5039122;28;20196;-74
2023/03/22 11:31:47;;;;;;;3.23;2.07;;;25.80;1.00;;;;;;5038834;28;20200;-75
2023/03/22 11:34:17;;;;;;;4.23;1.80;;;27.00;1.00;;;;;;5045867;28;20482;-75
2023/03/22 11:36:44;;;;;;;3.50;1.97;;;28.00;1.00;;;;;;5042724;28;20192;-75
2023/03/22 11:39:11;;;;;;;6.43;2.50;;;29.60;1.00;;;;;;5047112;28;20177;-74
2023/03/22 11:41:39;;;;;;;4.67;2.10;;;30.50;1.00;;;;;;5048832;28;20650;-74
2023/03/22 11:44:10;;;;;;;2.83;1.80;;;29.10;1.00;;;;;;5046440;28;20187;-75
2023/03/22 11:46:37;;;;;;;4.50;2.40;;;27.90;1.00;;;;;;5042277;28;20195;-75
2023/03/22 11:49:15;;;;;;;4.30;2.07;;;27.20;1.00;;;;;;5044453;28;20189;-75
2023/03/22 11:51:42;;;;;;;3.33;1.90;;;27.40;1.00;;;;;;5042010;28;20186;-75
2023/03/22 11:54:38;;;;;;;3.20;1.90;;;28.40;1.00;;;;;;5040821;28;20184;-75
2023/03/22 11:57:09;;;;;;;3.13;1.60;;;28.10;1.00;;;;;;5031468;28;20189;-72
2023/03/22 11:59:44;;;;;;;3.27;1.80;;;28.00;1.00;;;;;;5048405;28;20203;-74
2023/03/22 12:02:19;;;;;;;3.47;2.07;;;28.60;1.00;;;;;;5048233;28;20569;-74
2023/03/22 12:04:48;;;;;;;3.70;1.90;;;28.60;1.00;;;;;;5044134;28;20521;-74
2023/03/22 12:07:18;;;;;;;5.20;1.90;;;28.60;1.00;;;;;;5049839;28;20184;-74
2023/03/22 12:10:02;;;;;;;3.40;1.70;;;29.10;1.00;;;;;;5047224;28;20213;-74
2023/03/22 12:12:36;;;;;;;2.93;1.80;;;28.80;1.00;;;;;;5049876;28;20568;-74
2023/03/22 12:15:04;;;;;;;8.27;1.93;;;29.00;1.00;;;;;;5043179;28;20787;-75
2023/03/22 12:18:01;;;;;;;3.27;1.93;;;28.60;1.00;;;;;;5051984;28;20496;-74
2023/03/22 12:20:39;;;;;;;3.37;1.80;;;29.50;1.00;;;;;;5036898;28;20274;-75
2023/03/22 12:23:14;;;;;;;3.10;1.80;;;28.30;1.00;;;;;;5039753;28;20230;-74
2023/03/22 12:25:42;;;;;;;3.17;1.90;;;28.60;1.00;;;;;;5048665;28;20613;-74
2023/03/22 12:28:15;;;;;;;2.87;1.60;;;29.20;1.00;;;;;;5097212;22;21115;-75
2023/03/22 12:30:50;;;;;;;2.97;1.57;;;29.70;1.00;;;;;;5006506;28;20252;-75
2023/03/22 12:33:27;;;;;;;3.80;1.90;;;30.00;1.00;;;;;;5012453;28;20655;-74
2023/03/22 12:36:04;;;;;;;3.90;1.90;;;29.40;1.00;;;;;;5004914;28;20439;-75
2023/03/22 12:38:37;;;;;;;4.55;1.70;;;30.10;1.00;;;;;;5011166;28;20680;-75
2023/03/22 12:41:09;;;;;;;3.75;1.80;;;30.10;1.00;;;;;;5010413;28;20189;-74
2023/03/22 12:43:50;;;;;;;3.20;1.80;;;30.90;1.00;;;;;;5007790;28;20178;-76
2023/03/22 12:46:30;;;;;;;2.83;1.70;;;31.00;1.00;;;;;;5008126;28;20208;-75
2023/03/22 12:49:05;;;;;;;3.17;1.85;;;29.90;1.00;;;;;;5008238;28;20214;-75
2023/03/22 12:51:31;;;;;;;3.10;1.67;;;30.30;1.00;;;;;;5012769;28;20426;-75
2023/03/22 12:53:59;;;;;;;3.10;1.75;;;30.60;1.00;;;;;;5007998;28;20267;-75
2023/03/22 12:56:30;;;;;;;3.33;1.80;;;31.80;1.00;;;;;;5008095;28;20178;-75
2023/03/22 12:59:01;;;;;;;3.03;1.60;;;32.20;1.00;;;;;;5006795;28;20210;-72
2023/03/22 13:01:51;;;;;;;4.38;2.10;;;32.00;1.00;;;;;;5005825;28;20202;-75
2023/03/22 13:04:42;;;;;;;3.85;2.15;;;29.90;1.00;;;;;;4997372;28;20186;-76
2023/03/22 13:07:15;;;;;;;3.20;1.60;;;28.90;1.00;;;;;;5006392;28;20265;-75
2023/03/22 13:09:43;;;;;;;3.40;1.80;;;28.40;1.00;;;;;;5008874;28;20218;-76
2023/03/22 13:12:17;;;;;;;3.37;1.90;;;27.40;1.00;;;;;;5011611;28;20265;-75